createdAt,value
2018-06-29T05:03:04.359Z,49.00
2018-06-29T05:08:07.699Z,47.73
2018-06-29T05:13:11.044Z,41.83
2018-06-29T05:18:39.746Z,40.20
2018-06-29T05:23:43.099Z,47.13
2018-06-29T05:28:46.443Z,40.07
2018-06-29T05:33:49.794Z,40.43
2018-06-29T05:38:53.138Z,36.77
2018-06-29T05:43:56.471Z,42.33
2018-06-29T05:48:59.888Z,34.43
2018-06-29T05:54:03.235Z,33.03
2018-06-29T05:59:22.010Z,32.57
2018-06-29T06:04:26.128Z,35.63
2018-06-29T06:09:30.227Z,28.43
2018-06-29T06:14:33.567Z,31.77
2018-06-29T06:20:07.503Z,31.70
2018-06-29T06:25:10.839Z,35.47
2018-06-29T06:36:02.236Z,28.87
2018-06-29T06:41:05.576Z,25.13
2018-06-29T06:46:08.907Z,34.37
2018-06-29T06:51:12.251Z,30.53
2018-06-29T06:56:15.594Z,26.57
2018-06-29T07:01:18.926Z,29.83
2018-06-29T07:06:23.250Z,34.17
2018-06-29T07:11:26.589Z,30.97
2018-06-29T07:16:29.934Z,31.07
2018-06-29T07:21:33.278Z,27.17
2018-06-29T07:26:36.608Z,30.67
2018-06-29T07:31:40.888Z,32.70
2018-06-29T07:36:44.986Z,31.37
2018-06-29T07:41:48.323Z,26.27
2018-06-29T07:46:52.428Z,27.90
2018-06-29T07:51:55.762Z,30.13
2018-06-29T07:56:59.091Z,26.73
2018-06-29T08:02:03.195Z,23.80
2018-06-29T08:07:06.532Z,24.80
2018-06-29T08:12:09.883Z,27.40
2018-06-29T08:17:13.215Z,25.37
2018-06-29T08:22:16.553Z,24.03
2018-06-29T08:27:20.664Z,26.50
2018-06-29T08:32:24.030Z,29.83
2018-06-29T08:37:27.352Z,28.53
2018-06-29T08:42:30.687Z,25.20
2018-06-29T08:47:34.022Z,28.43
2018-06-29T08:52:37.370Z,25.47
2018-06-29T08:57:40.782Z,25.60
2018-06-29T09:02:44.112Z,23.70
2018-06-29T09:07:47.450Z,25.43
2018-06-29T09:12:50.795Z,25.83
2018-06-29T09:17:54.130Z,24.60
2018-06-29T09:22:57.466Z,24.90
2018-06-29T09:28:00.792Z,25.37
2018-06-29T09:33:04.122Z,24.40
2018-06-29T09:38:07.464Z,26.47
2018-06-29T09:43:11.563Z,26.30
2018-06-29T09:48:14.903Z,21.93
2018-06-29T09:53:18.277Z,21.90
2018-06-29T09:58:21.716Z,21.40
2018-06-29T10:03:25.155Z,22.97
2018-06-29T10:08:29.259Z,18.40
2018-06-29T10:13:32.614Z,19.60
2018-06-29T10:18:36.059Z,22.50
2018-06-29T10:23:39.431Z,20.67
2018-06-29T10:28:43.542Z,25.87
2018-06-29T10:33:46.884Z,25.03
2018-06-29T10:38:50.274Z,18.13
2018-06-29T10:43:53.597Z,23.33
2018-06-29T10:48:57.798Z,23.50
2018-06-29T10:54:01.243Z,24.67
2018-06-29T10:59:05.378Z,23.70
2018-06-29T11:04:08.806Z,24.43
2018-06-29T11:09:12.140Z,26.23
2018-06-29T11:14:15.487Z,25.37
2018-06-29T11:19:18.826Z,26.80
2018-06-29T11:24:22.924Z,22.67
2018-06-29T11:29:26.273Z,24.03
2018-06-29T11:34:29.610Z,23.13
2018-06-29T11:39:32.954Z,26.17
2018-06-29T11:44:36.283Z,26.27
2018-06-29T11:49:39.627Z,22.13
2018-06-29T11:54:43.727Z,23.90
2018-06-29T11:59:47.091Z,21.03
2018-06-29T12:04:50.430Z,22.43
2018-06-29T12:09:53.780Z,18.63
2018-06-29T12:14:57.167Z,23.17
2018-06-29T12:20:00.463Z,17.77
2018-06-29T12:25:03.828Z,24.00
2018-06-29T12:30:07.963Z,17.87
2018-06-29T12:35:11.322Z,20.53
2018-06-29T12:40:14.766Z,18.23
2018-06-29T12:45:18.104Z,15.60
2018-06-29T12:50:22.207Z,17.80
2018-06-29T12:55:25.563Z,17.83
2018-06-29T13:00:28.916Z,16.90
2018-06-29T13:05:32.436Z,16.70
2018-06-29T13:10:36.395Z,17.80
2018-06-29T13:15:39.743Z,16.43
2018-06-29T13:20:43.096Z,18.77
2018-06-29T13:25:46.434Z,19.63
2018-06-29T13:30:49.812Z,17.30
2018-06-29T13:35:53.116Z,17.80
2018-06-29T13:40:56.448Z,18.70
2018-06-29T13:45:59.786Z,12.93
2018-06-29T13:51:03.895Z,19.80
2018-06-29T13:56:07.250Z,17.80
2018-06-29T14:01:10.588Z,13.10
2018-06-29T14:06:13.934Z,16.73
2018-06-29T14:11:17.289Z,12.27
2018-06-29T14:16:20.630Z,11.10
2018-06-29T14:21:23.960Z,9.93
2018-06-29T14:26:27.295Z,10.80
2018-06-29T14:31:30.631Z,12.30
2018-06-29T14:36:34.734Z,13.50
2018-06-29T14:41:38.082Z,11.87
2018-06-29T14:46:41.423Z,11.67
2018-06-29T14:51:44.768Z,11.97
2018-06-29T14:56:48.120Z,12.27
2018-06-29T15:01:52.228Z,10.47
2018-06-29T15:06:56.339Z,14.63
2018-06-29T15:11:59.682Z,10.97
2018-06-29T15:17:03.783Z,10.33
2018-06-29T15:22:07.117Z,9.80
2018-06-29T15:27:10.458Z,15.93
2018-06-29T15:32:13.792Z,14.13
2018-06-29T15:37:17.156Z,15.07
2018-06-29T15:42:20.506Z,11.73
2018-06-29T15:47:23.855Z,15.37
2018-06-29T15:52:27.307Z,13.87
2018-06-29T15:57:31.686Z,10.17
2018-06-29T16:02:35.202Z,9.33
2018-06-29T16:07:38.671Z,12.67
2018-06-29T16:12:42.792Z,10.13
2018-06-29T16:17:46.581Z,12.90
2018-06-29T16:22:50.311Z,11.77
2018-06-29T16:27:53.991Z,10.73
2018-06-29T16:32:58.599Z,9.50
2018-06-29T16:38:02.224Z,11.23
2018-06-29T16:43:07.118Z,13.40
2018-06-29T16:48:10.656Z,12.20
2018-06-29T16:53:14.993Z,12.20
2018-06-29T16:58:18.419Z,11.53
2018-06-29T17:03:21.718Z,11.83
2018-06-29T17:08:25.051Z,11.97
2018-06-29T17:13:28.403Z,12.07
2018-06-29T17:18:36.018Z,12.17
2018-06-29T17:23:40.902Z,11.50
2018-06-29T17:28:47.670Z,11.17
2018-06-29T17:33:51.884Z,11.33
2018-06-29T17:38:55.151Z,12.40
2018-06-29T17:43:58.523Z,10.93
2018-06-29T17:49:01.867Z,11.10
2018-06-29T17:54:06.743Z,10.13
2018-06-29T17:59:12.392Z,11.40
2018-06-29T18:04:16.778Z,11.37
2018-06-29T18:09:21.699Z,12.80
2018-06-29T18:14:27.483Z,11.60
2018-06-29T18:19:37.467Z,13.40
2018-06-29T18:24:40.811Z,11.73
2018-06-29T18:29:47.716Z,12.40
2018-06-29T18:34:51.015Z,15.03
2018-06-29T18:39:57.776Z,10.97
2018-06-29T18:45:03.833Z,13.73
2018-06-29T18:50:10.412Z,11.00
2018-06-29T18:55:15.019Z,11.77
2018-06-29T19:00:18.416Z,12.40
2018-06-29T19:05:21.828Z,13.10
2018-06-29T19:10:25.946Z,11.40
2018-06-29T19:15:29.286Z,11.20
2018-06-29T19:26:14.808Z,14.90
2018-06-29T19:31:18.190Z,12.50
2018-06-29T19:36:21.511Z,14.97
2018-06-29T19:41:24.847Z,12.87
2018-06-29T19:46:28.200Z,13.67
2018-06-29T19:51:31.548Z,12.77
2018-06-29T19:56:34.895Z,13.67
2018-06-29T20:01:39.023Z,10.03
2018-06-29T20:06:42.536Z,13.60
2018-06-29T20:11:46.662Z,10.43
2018-06-29T20:16:50.119Z,11.23
2018-06-29T20:21:53.910Z,14.43
2018-06-29T20:26:57.275Z,13.53
2018-06-29T20:32:01.085Z,13.30
2018-06-29T20:37:05.416Z,11.47
2018-06-29T20:42:08.785Z,12.47
2018-06-29T20:47:12.124Z,14.23
2018-06-29T20:52:16.230Z,15.47
2018-06-29T20:57:19.570Z,12.80
2018-06-29T21:02:23.684Z,13.40
2018-06-29T21:07:27.035Z,12.30
2018-06-29T21:12:30.429Z,13.90
2018-06-29T21:17:33.728Z,11.03
2018-06-29T21:22:37.843Z,12.20
2018-06-29T21:27:41.188Z,11.93
2018-06-29T21:32:45.282Z,12.70
2018-06-29T21:37:48.623Z,13.13
2018-06-29T21:42:52.716Z,14.07
2018-06-29T21:47:56.062Z,12.20
2018-06-29T21:53:00.171Z,12.47
2018-06-29T21:58:03.523Z,12.70
2018-06-29T22:03:06.870Z,13.03
2018-06-29T22:08:10.214Z,14.23
2018-06-29T22:13:13.572Z,11.57
2018-06-29T22:18:16.911Z,14.07
2018-06-29T22:23:20.245Z,12.67
2018-06-29T22:28:23.583Z,11.07
